Check out our new PWSWeather beta!
PWSweather.com
Personal Weather Stations
Station Observations
METEOC500
Santo Antonio, FunchalPT 2020

Santo AntonioFunchalPT 2020

Lat: 32.678227, Lon: -16.945054

Elevation: 1669.94751

Station Type: WH Series

High Low Average
Temperature 66.9°F19.4°C 57.2°F14.0°C 60.2°F15.7°C
Dew Point 59.7°F15.4°C 50.0°F10.0°C 55.4°F13.0°C
Winds 9.2 mph 14.8 kmh Calm Calm 4.0 mph W6.4 kmh W
Wind Gusts 12.5 mph20.1 kmh -- 8.0 mph12.9 kmh
Humidity 95% 65% 84%
Pressure 30.20 in1022.7 mb 30.12 in1020.0 mb -
Precipitation 0.18 in4.6 mm - -
Hour Temp Dew Point Humidity Winds Wind Gusts Pressure Precip Precip Rate Daily Precip Total
12:09 AM 59.5°F15.3°C 55.0°F12.8°C 85% 4.0 mph N6.4 kmh N 10.1 mph16.3 kmh 30.17 in1021.7 mb 0.00 in0.0 mm 0.00 in0.0 mm 0.00 in0.0 mm
12:24 AM 59.5°F15.3°C 55.0°F12.8°C 85% 4.5 mph NW7.2 kmh NW 10.1 mph16.3 kmh 30.18 in1022.0 mb 0.00 in0.0 mm 0.00 in0.0 mm 0.00 in0.0 mm
12:39 AM 59.9°F15.5°C 55.0°F12.8°C 84% 4.7 mph NNW7.6 kmh NNW 7.6 mph12.2 kmh 30.17 in1021.7 mb 0.00 in0.0 mm 0.00 in0.0 mm 0.00 in0.0 mm
12:54 AM 59.9°F15.5°C 54.7°F12.6°C 83% 4.5 mph N7.2 kmh N 7.6 mph12.2 kmh 30.17 in1021.7 mb 0.00 in0.0 mm 0.00 in0.0 mm 0.00 in0.0 mm
01:09 AM 60.3°F15.7°C 55.0°F12.8°C 83% 4.5 mph NNW7.2 kmh NNW 7.6 mph12.2 kmh 30.17 in1021.7 mb 0.00 in0.0 mm 0.00 in0.0 mm 0.00 in0.0 mm
01:25 AM 60.4°F15.8°C 55.2°F12.9°C 83% 4.0 mph NNW6.4 kmh NNW 7.6 mph12.2 kmh 30.16 in1021.3 mb 0.00 in0.0 mm 0.00 in0.0 mm 0.00 in0.0 mm
01:40 AM 60.3°F15.7°C 55.0°F12.8°C 83% 4.0 mph N6.4 kmh N 7.6 mph12.2 kmh 30.16 in1021.3 mb 0.00 in0.0 mm 0.00 in0.0 mm 0.00 in0.0 mm
01:55 AM 60.1°F15.6°C 54.5°F12.5°C 82% 3.4 mph NNW5.5 kmh NNW 7.6 mph12.2 kmh 30.16 in1021.3 mb 0.00 in0.0 mm 0.00 in0.0 mm 0.00 in0.0 mm
02:10 AM 59.7°F15.4°C 54.5°F12.5°C 83% 3.1 mph NNW5.0 kmh NNW 7.6 mph12.2 kmh 30.16 in1021.3 mb 0.00 in0.0 mm 0.00 in0.0 mm 0.00 in0.0 mm
02:25 AM 59.2°F15.1°C 53.6°F12.0°C 82% 4.5 mph NNW7.2 kmh NNW 7.6 mph12.2 kmh 30.16 in1021.3 mb 0.00 in0.0 mm 0.00 in0.0 mm 0.00 in0.0 mm
02:40 AM 58.8°F14.9°C 53.1°F11.7°C 81% 4.9 mph NNW7.9 kmh NNW 7.6 mph12.2 kmh 30.15 in1021.0 mb 0.00 in0.0 mm 0.00 in0.0 mm 0.00 in0.0 mm
02:55 AM 59.0°F15.0°C 53.2°F11.8°C 81% 4.9 mph N7.9 kmh N 10.1 mph16.3 kmh 30.15 in1021.0 mb 0.00 in0.0 mm 0.00 in0.0 mm 0.00 in0.0 mm
03:10 AM 59.2°F15.1°C 53.4°F11.9°C 81% 5.6 mph NNW9.0 kmh NNW 10.1 mph16.3 kmh 30.15 in1021.0 mb 0.00 in0.0 mm 0.00 in0.0 mm 0.00 in0.0 mm
03:25 AM 59.0°F15.0°C 53.6°F12.0°C 82% 4.7 mph NNW7.6 kmh NNW 10.1 mph16.3 kmh 30.14 in1020.7 mb 0.00 in0.0 mm 0.00 in0.0 mm 0.00 in0.0 mm
03:40 AM 58.8°F14.9°C 53.1°F11.7°C 81% 5.6 mph N9.0 kmh N 10.1 mph16.3 kmh 30.14 in1020.7 mb 0.00 in0.0 mm 0.00 in0.0 mm 0.00 in0.0 mm
03:55 AM 58.8°F14.9°C 52.7°F11.5°C 80% 4.5 mph NNW7.2 kmh NNW 10.1 mph16.3 kmh 30.14 in1020.7 mb 0.00 in0.0 mm 0.00 in0.0 mm 0.00 in0.0 mm
04:10 AM 59.0°F15.0°C 52.5°F11.4°C 79% 6.0 mph NNW9.7 kmh NNW 10.1 mph16.3 kmh 30.14 in1020.7 mb 0.00 in0.0 mm 0.00 in0.0 mm 0.00 in0.0 mm
04:25 AM 59.0°F15.0°C 52.9°F11.6°C 80% 4.9 mph N7.9 kmh N 10.1 mph16.3 kmh 30.13 in1020.3 mb 0.00 in0.0 mm 0.00 in0.0 mm 0.00 in0.0 mm
04:40 AM 59.0°F15.0°C 52.9°F11.6°C 80% 5.4 mph NNW8.7 kmh NNW 10.1 mph16.3 kmh 30.13 in1020.3 mb 0.00 in0.0 mm 0.00 in0.0 mm 0.00 in0.0 mm
04:55 AM 58.8°F14.9°C 53.1°F11.7°C 81% 5.4 mph NW8.7 kmh NW 10.1 mph16.3 kmh 30.13 in1020.3 mb 0.00 in0.0 mm 0.00 in0.0 mm 0.00 in0.0 mm
05:11 AM 58.8°F14.9°C 52.7°F11.5°C 80% 6.5 mph NNW10.5 kmh NNW 10.1 mph16.3 kmh 30.13 in1020.3 mb 0.00 in0.0 mm 0.00 in0.0 mm 0.00 in0.0 mm
05:26 AM 58.8°F14.9°C 52.7°F11.5°C 80% 4.9 mph NNW7.9 kmh NNW 10.1 mph16.3 kmh 30.13 in1020.3 mb 0.00 in0.0 mm 0.00 in0.0 mm 0.00 in0.0 mm
05:41 AM 58.8°F14.9°C 52.7°F11.5°C 80% 6.0 mph NNW9.7 kmh NNW 10.1 mph16.3 kmh 30.14 in1020.7 mb 0.00 in0.0 mm 0.00 in0.0 mm 0.00 in0.0 mm
05:56 AM 58.8°F14.9°C 53.4°F11.9°C 82% 4.7 mph NNW7.6 kmh NNW 10.1 mph16.3 kmh 30.13 in1020.3 mb 0.00 in0.0 mm 0.00 in0.0 mm 0.00 in0.0 mm
06:11 AM 58.5°F14.7°C 53.1°F11.7°C 82% 5.6 mph N9.0 kmh N 10.1 mph16.3 kmh 30.13 in1020.3 mb 0.00 in0.0 mm 0.00 in0.0 mm 0.00 in0.0 mm
06:26 AM 58.5°F14.7°C 52.3°F11.3°C 80% 7.6 mph N12.2 kmh N 10.1 mph16.3 kmh 30.14 in1020.7 mb 0.00 in0.0 mm 0.00 in0.0 mm 0.00 in0.0 mm
06:41 AM 58.6°F14.8°C 52.5°F11.4°C 80% 8.5 mph NNW13.7 kmh NNW 10.1 mph16.3 kmh 30.15 in1021.0 mb 0.00 in0.0 mm 0.00 in0.0 mm 0.00 in0.0 mm
06:56 AM 58.5°F14.7°C 52.3°F11.3°C 80% 6.5 mph NW10.5 kmh NW 10.1 mph16.3 kmh 30.15 in1021.0 mb 0.00 in0.0 mm 0.00 in0.0 mm 0.00 in0.0 mm
07:11 AM 58.5°F14.7°C 52.7°F11.5°C 81% 4.9 mph NW7.9 kmh NW 10.1 mph16.3 kmh 30.15 in1021.0 mb 0.00 in0.0 mm 0.00 in0.0 mm 0.00 in0.0 mm
07:26 AM 58.5°F14.7°C 52.7°F11.5°C 81% 7.2 mph NNW11.6 kmh NNW 10.1 mph16.3 kmh 30.15 in1021.0 mb 0.00 in0.0 mm 0.00 in0.0 mm 0.00 in0.0 mm
07:41 AM 58.5°F14.7°C 52.7°F11.5°C 81% 7.2 mph NNW11.6 kmh NNW 10.1 mph16.3 kmh 30.15 in1021.0 mb 0.00 in0.0 mm 0.00 in0.0 mm 0.00 in0.0 mm
07:56 AM 58.5°F14.7°C 51.6°F10.9°C 78% 6.5 mph N10.5 kmh N 12.5 mph20.1 kmh 30.15 in1021.0 mb 0.00 in0.0 mm 0.00 in0.0 mm 0.00 in0.0 mm
08:11 AM 58.6°F14.8°C 50.0°F10.0°C 73% 6.3 mph NNW10.1 kmh NNW 12.5 mph20.1 kmh 30.16 in1021.3 mb 0.00 in0.0 mm 0.00 in0.0 mm 0.00 in0.0 mm
08:26 AM 59.2°F15.1°C 50.2°F10.1°C 72% 6.5 mph N10.5 kmh N 10.1 mph16.3 kmh 30.16 in1021.3 mb 0.00 in0.0 mm 0.00 in0.0 mm 0.00 in0.0 mm
08:42 AM 59.7°F15.4°C 52.2°F11.2°C 76% 6.9 mph N11.1 kmh N 10.1 mph16.3 kmh 30.16 in1021.3 mb 0.00 in0.0 mm 0.00 in0.0 mm 0.00 in0.0 mm
08:57 AM 59.5°F15.3°C 52.7°F11.5°C 78% 3.8 mph NNW6.1 kmh NNW 10.1 mph16.3 kmh 30.16 in1021.3 mb 0.00 in0.0 mm 0.00 in0.0 mm 0.00 in0.0 mm
09:12 AM 59.7°F15.4°C 52.9°F11.6°C 78% 4.5 mph N7.2 kmh N 10.1 mph16.3 kmh 30.18 in1022.0 mb 0.00 in0.0 mm 0.00 in0.0 mm 0.00 in0.0 mm
09:27 AM 60.4°F15.8°C 52.9°F11.6°C 76% 2.5 mph N4.0 kmh N 7.6 mph12.2 kmh 30.17 in1021.7 mb 0.00 in0.0 mm 0.00 in0.0 mm 0.00 in0.0 mm
09:42 AM 61.9°F16.6°C 53.4°F11.9°C 74% Calm Calm 10.1 mph16.3 kmh 30.18 in1022.0 mb 0.00 in0.0 mm 0.00 in0.0 mm 0.00 in0.0 mm
09:57 AM 64.2°F17.9°C 52.7°F11.5°C 66% 1.6 mph SW2.6 kmh SW 7.6 mph12.2 kmh 30.18 in1022.0 mb 0.00 in0.0 mm 0.00 in0.0 mm 0.00 in0.0 mm
10:12 AM 66.4°F19.1°C 54.3°F12.4°C 65% 2.5 mph SE4.0 kmh SE 7.6 mph12.2 kmh 30.19 in1022.4 mb 0.00 in0.0 mm 0.00 in0.0 mm 0.00 in0.0 mm
10:27 AM 66.9°F19.4°C 57.2°F14.0°C 71% 6.0 mph ESE9.7 kmh ESE 10.1 mph16.3 kmh 30.19 in1022.4 mb 0.00 in0.0 mm 0.00 in0.0 mm 0.00 in0.0 mm
10:42 AM 66.6°F19.2°C 58.5°F14.7°C 75% 3.1 mph ESE5.0 kmh ESE 10.1 mph16.3 kmh 30.20 in1022.7 mb 0.00 in0.0 mm 0.00 in0.0 mm 0.00 in0.0 mm
10:57 AM 64.9°F18.3°C 58.6°F14.8°C 80% Calm Calm 7.6 mph12.2 kmh 30.20 in1022.7 mb 0.00 in0.0 mm 0.00 in0.0 mm 0.00 in0.0 mm
11:12 AM 64.6°F18.1°C 57.2°F14.0°C 77% 6.0 mph ESE9.7 kmh ESE 10.1 mph16.3 kmh 30.20 in1022.7 mb 0.00 in0.0 mm 0.00 in0.0 mm 0.00 in0.0 mm
11:27 AM 65.8°F18.8°C 57.4°F14.1°C 74% 4.0 mph SSW6.4 kmh SSW 7.6 mph12.2 kmh 30.19 in1022.4 mb 0.00 in0.0 mm 0.00 in0.0 mm 0.00 in0.0 mm
11:42 AM 66.6°F19.2°C 59.5°F15.3°C 78% 4.5 mph SE7.2 kmh SE 10.1 mph16.3 kmh 30.19 in1022.4 mb 0.00 in0.0 mm 0.00 in0.0 mm 0.00 in0.0 mm
11:57 AM 66.4°F19.1°C 59.7°F15.4°C 79% 3.8 mph SE6.1 kmh SE 12.5 mph20.1 kmh 30.19 in1022.4 mb 0.00 in0.0 mm 0.00 in0.0 mm 0.00 in0.0 mm
12:13 PM 65.5°F18.6°C 59.2°F15.1°C 80% 1.6 mph S2.6 kmh S 7.6 mph12.2 kmh 30.18 in1022.0 mb 0.00 in0.0 mm 0.00 in0.0 mm 0.00 in0.0 mm
12:28 PM 64.4°F18.0°C 58.8°F14.9°C 82% 0.7 mph SSW1.1 kmh SSW 7.6 mph12.2 kmh 30.19 in1022.4 mb 0.00 in0.0 mm 0.00 in0.0 mm 0.00 in0.0 mm
12:43 PM 63.9°F17.7°C 58.3°F14.6°C 82% 2.5 mph SE4.0 kmh SE 7.6 mph12.2 kmh 30.17 in1021.7 mb 0.00 in0.0 mm 0.00 in0.0 mm 0.00 in0.0 mm
12:58 PM 63.7°F17.6°C 58.1°F14.5°C 82% Calm Calm 10.1 mph16.3 kmh 30.16 in1021.3 mb 0.00 in0.0 mm 0.00 in0.0 mm 0.00 in0.0 mm
01:13 PM 63.5°F17.5°C 58.6°F14.8°C 84% 1.8 mph SSW2.9 kmh SSW 7.6 mph12.2 kmh 30.16 in1021.3 mb 0.00 in0.0 mm 0.00 in0.0 mm 0.00 in0.0 mm
01:28 PM 63.3°F17.4°C 58.5°F14.7°C 84% 3.4 mph S5.5 kmh S 7.6 mph12.2 kmh 30.16 in1021.3 mb 0.00 in0.0 mm 0.00 in0.0 mm 0.00 in0.0 mm
01:43 PM 63.0°F17.2°C 59.0°F15.0°C 87% 0.2 mph S0.3 kmh S 7.6 mph12.2 kmh 30.15 in1021.0 mb 0.00 in0.0 mm 0.00 in0.0 mm 0.00 in0.0 mm
01:58 PM 62.8°F17.1°C 58.8°F14.9°C 87% Calm Calm 4.9 mph7.9 kmh 30.14 in1020.7 mb 0.00 in0.0 mm 0.00 in0.0 mm 0.00 in0.0 mm
02:13 PM 62.4°F16.9°C 58.8°F14.9°C 88% 0.2 mph SSW0.3 kmh SSW 4.9 mph7.9 kmh 30.14 in1020.7 mb 0.00 in0.0 mm 0.00 in0.0 mm 0.00 in0.0 mm
02:28 PM 62.1°F16.7°C 59.2°F15.1°C 90% 1.3 mph SSW2.1 kmh SSW 4.9 mph7.9 kmh 30.14 in1020.7 mb 0.00 in0.0 mm 0.00 in0.0 mm 0.00 in0.0 mm
02:43 PM 61.7°F16.5°C 59.4°F15.2°C 92% 2.2 mph S3.5 kmh S 7.6 mph12.2 kmh 30.14 in1020.7 mb 0.02 in0.5 mm 0.08 in2.0 mm 0.02 in0.5 mm
02:58 PM 61.3°F16.3°C 59.5°F15.3°C 94% 1.6 mph SSW2.6 kmh SSW 7.6 mph12.2 kmh 30.14 in1020.7 mb 0.07 in1.8 mm 0.20 in5.1 mm 0.07 in1.8 mm
03:13 PM 61.0°F16.1°C 59.2°F15.1°C 94% 4.0 mph SSE6.4 kmh SSE 7.6 mph12.2 kmh 30.13 in1020.3 mb 0.11 in2.8 mm 0.05 in1.3 mm 0.11 in2.8 mm
03:29 PM 60.3°F15.7°C 58.8°F14.9°C 95% Calm Calm 4.9 mph7.9 kmh 30.13 in1020.3 mb 0.13 in3.3 mm 0.08 in2.0 mm 0.13 in3.3 mm
03:44 PM 59.9°F15.5°C 58.5°F14.7°C 95% 1.6 mph N2.6 kmh N 4.9 mph7.9 kmh 30.13 in1020.3 mb 0.13 in3.3 mm 0.00 in0.0 mm 0.15 in3.8 mm
03:59 PM 59.7°F15.4°C 58.3°F14.6°C 95% Calm Calm 2.5 mph4.0 kmh 30.13 in1020.3 mb 0.09 in2.3 mm 0.00 in0.0 mm 0.17 in4.3 mm
04:14 PM 59.9°F15.5°C 58.5°F14.7°C 95% Calm Calm -- 30.14 in1020.7 mb 0.06 in1.5 mm 0.00 in0.0 mm 0.17 in4.3 mm
04:29 PM 60.1°F15.6°C 58.6°F14.8°C 95% Calm Calm 4.9 mph7.9 kmh 30.13 in1020.3 mb 0.05 in1.3 mm 0.00 in0.0 mm 0.18 in4.6 mm
04:44 PM 60.1°F15.6°C 58.6°F14.8°C 95% Calm Calm -- 30.12 in1020.0 mb 0.02 in0.5 mm 0.00 in0.0 mm 0.18 in4.6 mm
04:59 PM 60.4°F15.8°C 59.0°F15.0°C 95% Calm Calm 2.5 mph4.0 kmh 30.14 in1020.7 mb 0.01 in0.3 mm 0.00 in0.0 mm 0.18 in4.6 mm
05:14 PM 60.6°F15.9°C 59.2°F15.1°C 95% Calm Calm -- 30.13 in1020.3 mb 0.01 in0.3 mm 0.00 in0.0 mm 0.18 in4.6 mm
05:29 PM 60.3°F15.7°C 58.8°F14.9°C 95% Calm Calm -- 30.14 in1020.7 mb 0.00 in0.0 mm 0.00 in0.0 mm 0.18 in4.6 mm
05:44 PM 60.4°F15.8°C 59.0°F15.0°C 95% Calm Calm 2.5 mph4.0 kmh 30.14 in1020.7 mb 0.00 in0.0 mm 0.00 in0.0 mm 0.18 in4.6 mm
05:59 PM 60.6°F15.9°C 59.2°F15.1°C 95% Calm Calm -- 30.14 in1020.7 mb 0.00 in0.0 mm 0.00 in0.0 mm 0.18 in4.6 mm
06:15 PM 60.4°F15.8°C 59.0°F15.0°C 95% Calm Calm -- 30.14 in1020.7 mb 0.00 in0.0 mm 0.00 in0.0 mm 0.18 in4.6 mm
06:30 PM 59.9°F15.5°C 58.5°F14.7°C 95% 2.2 mph NNW3.5 kmh NNW 4.9 mph7.9 kmh 30.14 in1020.7 mb 0.00 in0.0 mm 0.00 in0.0 mm 0.18 in4.6 mm
06:45 PM 59.0°F15.0°C 57.2°F14.0°C 94% 2.9 mph NNW4.7 kmh NNW 4.9 mph7.9 kmh 30.14 in1020.7 mb 0.00 in0.0 mm 0.00 in0.0 mm 0.18 in4.6 mm
07:00 PM 58.6°F14.8°C 56.8°F13.8°C 94% 3.8 mph NNW6.1 kmh NNW 7.6 mph12.2 kmh 30.15 in1021.0 mb 0.00 in0.0 mm 0.00 in0.0 mm 0.18 in4.6 mm
07:15 PM 58.5°F14.7°C 56.5°F13.6°C 93% 3.8 mph NNW6.1 kmh NNW 7.6 mph12.2 kmh 30.15 in1021.0 mb 0.00 in0.0 mm 0.00 in0.0 mm 0.18 in4.6 mm
07:30 PM 58.1°F14.5°C 55.8°F13.2°C 92% 4.0 mph NW6.4 kmh NW 7.6 mph12.2 kmh 30.15 in1021.0 mb 0.00 in0.0 mm 0.00 in0.0 mm 0.18 in4.6 mm
07:45 PM 57.9°F14.4°C 55.2°F12.9°C 91% 6.5 mph NNW10.5 kmh NNW 7.6 mph12.2 kmh 30.16 in1021.3 mb 0.00 in0.0 mm 0.00 in0.0 mm 0.18 in4.6 mm
08:00 PM 57.7°F14.3°C 55.2°F12.9°C 91% 4.5 mph NNW7.2 kmh NNW 10.1 mph16.3 kmh 30.16 in1021.3 mb 0.00 in0.0 mm 0.00 in0.0 mm 0.18 in4.6 mm
08:15 PM 57.6°F14.2°C 54.7°F12.6°C 90% 3.8 mph NNW6.1 kmh NNW 12.5 mph20.1 kmh 30.17 in1021.7 mb 0.00 in0.0 mm 0.00 in0.0 mm 0.18 in4.6 mm
08:30 PM 57.4°F14.1°C 54.5°F12.5°C 90% 6.0 mph NW9.7 kmh NW 10.1 mph16.3 kmh 30.17 in1021.7 mb 0.00 in0.0 mm 0.00 in0.0 mm 0.18 in4.6 mm
08:45 PM 57.2°F14.0°C 54.0°F12.2°C 89% 6.3 mph NNW10.1 kmh NNW 10.1 mph16.3 kmh 30.17 in1021.7 mb 0.00 in0.0 mm 0.00 in0.0 mm 0.18 in4.6 mm
09:01 PM 57.4°F14.1°C 53.8°F12.1°C 88% 5.6 mph NNW9.0 kmh NNW 7.6 mph12.2 kmh 30.18 in1022.0 mb 0.00 in0.0 mm 0.00 in0.0 mm 0.18 in4.6 mm
09:16 PM 57.6°F14.2°C 54.0°F12.2°C 88% 7.6 mph NNW12.2 kmh NNW 10.1 mph16.3 kmh 30.18 in1022.0 mb 0.00 in0.0 mm 0.00 in0.0 mm 0.18 in4.6 mm
09:31 PM 57.4°F14.1°C 53.6°F12.0°C 87% 4.7 mph NNW7.6 kmh NNW 10.1 mph16.3 kmh 30.18 in1022.0 mb 0.00 in0.0 mm 0.00 in0.0 mm 0.18 in4.6 mm
09:46 PM 57.4°F14.1°C 53.2°F11.8°C 86% 7.6 mph N12.2 kmh N 10.1 mph16.3 kmh 30.19 in1022.4 mb 0.00 in0.0 mm 0.00 in0.0 mm 0.18 in4.6 mm
10:01 PM 57.7°F14.3°C 53.2°F11.8°C 85% 7.8 mph NW12.6 kmh NW 10.1 mph16.3 kmh 30.19 in1022.4 mb 0.00 in0.0 mm 0.00 in0.0 mm 0.18 in4.6 mm
10:16 PM 57.9°F14.4°C 53.8°F12.1°C 86% 7.2 mph NNW11.6 kmh NNW 10.1 mph16.3 kmh 30.18 in1022.0 mb 0.00 in0.0 mm 0.00 in0.0 mm 0.18 in4.6 mm
10:31 PM 57.9°F14.4°C 54.1°F12.3°C 87% 6.0 mph NNW9.7 kmh NNW 10.1 mph16.3 kmh 30.18 in1022.0 mb 0.00 in0.0 mm 0.00 in0.0 mm 0.18 in4.6 mm
10:46 PM 57.7°F14.3°C 53.6°F12.0°C 86% 8.1 mph NNW13.0 kmh NNW 10.1 mph16.3 kmh 30.18 in1022.0 mb 0.00 in0.0 mm 0.00 in0.0 mm 0.18 in4.6 mm
11:01 PM 57.7°F14.3°C 53.2°F11.8°C 85% 6.9 mph NNW11.1 kmh NNW 10.1 mph16.3 kmh 30.19 in1022.4 mb 0.00 in0.0 mm 0.00 in0.0 mm 0.18 in4.6 mm
11:16 PM 57.9°F14.4°C 53.1°F11.7°C 84% 8.1 mph NNW13.0 kmh NNW 12.5 mph20.1 kmh 30.19 in1022.4 mb 0.00 in0.0 mm 0.00 in0.0 mm 0.18 in4.6 mm
11:31 PM 57.9°F14.4°C 52.7°F11.5°C 83% 8.7 mph NNW14.0 kmh NNW 10.1 mph16.3 kmh 30.19 in1022.4 mb 0.00 in0.0 mm 0.00 in0.0 mm 0.18 in4.6 mm
11:47 PM 57.9°F14.4°C 52.5°F11.4°C 82% 9.2 mph NW14.8 kmh NW 10.1 mph16.3 kmh 30.19 in1022.4 mb 0.00 in0.0 mm 0.00 in0.0 mm 0.18 in4.6 mm